CheckWX is a tool to help pilots better visualize weather data.  It is not intended as a substitute for an official pre-flight weather briefing.

02:09:37 UTC

UTAV TAF
Turkmenabat Airport
Türkmenabat, Turkmenistan
TAF UTAV 222230Z 2300/2324 02016KT 5000 BKN020 SCT030CB 530003 TEMPO 2300/2306 30016G26KT 3000 -SHRA BKN007 PROB40 TEMPO 2300/2306 VRB34KT 1200 TSRA BKN004

Apr-23@
00:00 UTC

Apr-23 @ 00:00 UTC

Apr-24@
00:00 UTC

Apr-24 @ 00:00 UTC

TAF UTAV 222230Z 2300/2324 02016KT 5000 BKN020 SCT030CB 530003
Wind
  • 020° at 16 KTS
Cloud Levels
  • Broken at 2,000' AGL
  • Scattered at 3,000' AGL
Turbulence
< Frequent moderate clear air turbulence expected at the surface extending to 3,000' AGL

Apr-23@
00:00 UTC

Apr-23 @ 00:00 UTC

Apr-23@
06:00 UTC

Apr-23 @ 06:00 UTC

TEMPO 2300/2306 30016G26KT 3000 -SHRA BKN007

Temporary

Temporary Changes expected for less than half the time period

Wind
  • 300° at 16 KTS
  • {Gusting to 26 KTS
Conditions
Light Rain
Cloud Levels
  • Broken at 700' AGL

Apr-23@
00:00 UTC

Apr-23 @ 00:00 UTC

Apr-23@
06:00 UTC

Apr-23 @ 06:00 UTC

PROB40 TEMPO 2300/2306 VRB34KT 1200 TSRA BKN004

Temporary - 40% Likelihood

Temporary - 40% Likelihood during this time.

Wind
  • Variable at 34 KTS
Conditions
Thunderstorm, Rain
Cloud Levels
  • Broken at 400' AGL